Terminal Aerodrome Forecast
Issued by NWS North Platte, NE

Home | Current Version | Previous Version | Text Only | Print | Product List | Glossary Off
Versions: 1 2 3 4 5 6 7 8 9 10 11 12

000
FTUS43 KLBF 232320
TAFVTN
TAF
KVTN 232320Z 2400/2424 36014G23KT P6SM FEW250
     FM240200 34011G20KT P6SM FEW250
     FM240800 33007KT P6SM SCT250
     FM241500 35010KT P6SM SCT120 BKN200
     FM241900 32011G19KT P6SM BKN120=

USA.gov is the U.S. government's official web portal to all federal, state and local government web resources and services.